Time;durP1;ratioP1;P1;durP2;ratioP2;P2;SDS_P1;SDS_P2;PMS_P1;PMS_P2;Temp;Humidity;BMP_temperature;BMP_pressure;BME280_temperature;BME280_humidity;BME280_pressure;Samples;Min_cycle;Max_cycle;Signal;HPM_P1;HPM_P2
2023/01/09 00:01:00;;;;;;;33.47;17.60;;;;;;;;;;5109604;28;20055;-82
2023/01/09 00:03:26;;;;;;;36.30;16.67;;;;;;;;;;5106144;28;20073;-82
2023/01/09 00:05:53;;;;;;;41.28;19.00;;;;;;;;;;5097816;28;20031;-81
2023/01/09 00:08:19;;;;;;;37.00;19.20;;;;;;;;;;5099733;28;20085;-81
2023/01/09 00:10:45;;;;;;;36.08;17.55;;;;;;;;;;5101605;28;20035;-81
2023/01/09 00:13:11;;;;;;;42.75;20.25;;;;;;;;;;5102913;28;20401;-81
2023/01/09 00:15:38;;;;;;;38.13;18.27;;;;;;;;;;5110077;28;20038;-81
2023/01/09 00:18:04;;;;;;;38.10;18.45;;;;;;;;;;5103390;28;20059;-83
2023/01/09 00:20:30;;;;;;;43.58;18.80;;;;;;;;;;5097940;28;20028;-81
2023/01/09 00:22:56;;;;;;;42.00;18.80;;;;;;;;;;5100050;28;20024;-81
2023/01/09 00:25:22;;;;;;;35.65;17.73;;;;;;;;;;5100068;28;20059;-82
2023/01/09 00:27:48;;;;;;;40.17;18.52;;;;;;;;;;5117854;28;20059;-81
2023/01/09 00:30:14;;;;;;;35.17;16.75;;;;;;;;;;5118531;28;20028;-82
2023/01/09 00:32:40;;;;;;;33.28;17.90;;;;;;;;;;5117166;28;20051;-82
2023/01/09 00:35:08;;;;;;;36.00;17.63;;;;;;;;;;5118608;28;20031;-80
2023/01/09 00:37:34;;;;;;;36.50;17.77;;;;;;;;;;5100513;28;20020;-81
2023/01/09 00:40:00;;;;;;;41.17;17.50;;;;;;;;;;5100294;28;20027;-82
2023/01/09 00:42:28;;;;;;;31.25;15.73;;;;;;;;;;5098452;28;20051;-81
2023/01/09 00:44:56;;;;;;;32.45;16.95;;;;;;;;;;5115994;28;20413;-82
2023/01/09 00:47:28;;;;;;;40.45;16.50;;;;;;;;;;5118328;28;20031;-81
2023/01/09 00:49:54;;;;;;;;;;;;;;;;;;5104802;28;20047;-81
2023/01/09 00:52:21;;;;;;;29.02;14.40;;;;;;;;;;5100536;28;20413;-83
2023/01/09 00:54:47;;;;;;;32.38;15.50;;;;;;;;;;5099190;28;20039;-80
2023/01/09 00:57:13;;;;;;;33.40;16.42;;;;;;;;;;5099076;28;20115;-82
2023/01/09 00:59:41;;;;;;;34.28;16.58;;;;;;;;;;5099219;28;20555;-82
2023/01/09 01:02:07;;;;;;;36.90;17.08;;;;;;;;;;5097655;28;20032;-81
2023/01/09 01:10:03;;;;;;;29.55;16.33;;;;;;;;;;5119942;28;20080;-82
2023/01/09 01:12:29;;;;;;;36.05;16.60;;;;;;;;;;5111361;28;20024;-81
2023/01/09 01:14:55;;;;;;;30.55;15.00;;;;;;;;;;5115779;28;20031;-82
2023/01/09 01:17:21;;;;;;;32.58;16.38;;;;;;;;;;5115751;28;20023;-82
2023/01/09 01:19:47;;;;;;;33.47;16.35;;;;;;;;;;5119017;28;20697;-81
2023/01/09 01:22:13;;;;;;;35.33;15.93;;;;;;;;;;5118504;28;20503;-81
2023/01/09 01:24:39;;;;;;;35.83;16.90;;;;;;;;;;5098877;28;20028;-81
2023/01/09 01:27:05;;;;;;;37.88;16.92;;;;;;;;;;5105663;28;20062;-80
2023/01/09 01:29:31;;;;;;;37.50;17.63;;;;;;;;;;5096912;28;20020;-81
2023/01/09 01:31:57;;;;;;;34.67;16.08;;;;;;;;;;5097576;28;20062;-81
2023/01/09 01:34:24;;;;;;;37.80;17.88;;;;;;;;;;5098355;28;20063;-81
2023/01/09 01:36:50;;;;;;;37.17;17.55;;;;;;;;;;5114137;28;20027;-80
2023/01/09 01:39:16;;;;;;;37.05;17.70;;;;;;;;;;5099358;28;20024;-81
2023/01/09 01:41:42;;;;;;;38.55;18.27;;;;;;;;;;5098974;28;20042;-81
2023/01/09 01:44:26;;;;;;;36.42;17.92;;;;;;;;;;5103045;28;20050;-81
2023/01/09 01:46:54;;;;;;;37.75;17.45;;;;;;;;;;5113340;28;20036;-81
2023/01/09 01:49:20;;;;;;;38.75;18.20;;;;;;;;;;5115504;28;20034;-81
2023/01/09 01:51:49;;;;;;;40.88;17.75;;;;;;;;;;5096950;28;20020;-81
2023/01/09 01:54:20;;;;;;;33.13;18.15;;;;;;;;;;5097904;28;20096;-80
2023/01/09 01:56:47;;;;;;;34.53;17.27;;;;;;;;;;5103364;28;20095;-81
2023/01/09 01:59:35;;;;;;;37.10;17.05;;;;;;;;;;5115184;28;20031;-81
2023/01/09 02:02:02;;;;;;;37.85;18.02;;;;;;;;;;5116581;28;20374;-81
2023/01/09 02:04:29;;;;;;;40.53;16.70;;;;;;;;;;5116113;28;20534;-81
2023/01/09 02:06:55;;;;;;;35.30;16.55;;;;;;;;;;5096498;28;20089;-81
2023/01/09 02:09:24;;;;;;;33.75;17.77;;;;;;;;;;5108865;28;20122;-81
2023/01/09 02:11:55;;;;;;;34.63;17.58;;;;;;;;;;5107664;28;20051;-81
2023/01/09 02:14:22;;;;;;;32.92;17.58;;;;;;;;;;5109826;28;20027;-80
2023/01/09 02:16:57;;;;;;;42.15;17.75;;;;;;;;;;5116664;28;20033;-82
2023/01/09 02:19:42;;;;;;;39.13;17.70;;;;;;;;;;5103332;28;20028;-81
2023/01/09 02:22:30;;;;;;;33.20;16.17;;;;;;;;;;5097075;28;20023;-80
2023/01/09 02:25:15;;;;;;;32.95;16.00;;;;;;;;;;5100112;28;20036;-81
2023/01/09 02:27:57;;;;;;;38.00;17.00;;;;;;;;;;5116283;28;20027;-82
2023/01/09 02:30:26;;;;;;;33.40;15.48;;;;;;;;;;5098933;28;20177;-82
2023/01/09 02:32:52;;;;;;;35.60;16.83;;;;;;;;;;5102665;28;20397;-81
2023/01/09 02:35:24;;;;;;;35.28;16.27;;;;;;;;;;5096997;28;20020;-81
2023/01/09 02:38:00;;;;;;;33.80;16.80;;;;;;;;;;5095792;28;20108;-81
2023/01/09 02:40:32;;;;;;;32.72;16.33;;;;;;;;;;5105925;28;20028;-80
2023/01/09 02:42:59;;;;;;;36.33;17.52;;;;;;;;;;5097366;28;20118;-81
2023/01/09 02:45:26;;;;;;;35.42;17.58;;;;;;;;;;5114290;28;20031;-82
2023/01/09 02:47:52;;;;;;;30.77;16.85;;;;;;;;;;5106576;28;20035;-81
2023/01/09 02:50:20;;;;;;;37.25;16.55;;;;;;;;;;5100168;28;20024;-82
2023/01/09 02:52:53;;;;;;;36.45;16.00;;;;;;;;;;5099978;28;20079;-82
2023/01/09 02:55:30;;;;;;;32.90;15.85;;;;;;;;;;5096182;28;20042;-80
2023/01/09 02:57:56;;;;;;;34.22;16.00;;;;;;;;;;5112687;28;20016;-82
2023/01/09 03:00:55;;;;;;;32.28;15.57;;;;;;;;;;5097154;28;20039;-82
2023/01/09 03:03:34;;;;;;;32.65;16.35;;;;;;;;;;5057669;28;20271;-81
2023/01/09 03:06:06;;;;;;;31.67;16.92;;;;;;;;;;5051069;28;20554;-81
2023/01/09 03:08:40;;;;;;;30.25;17.02;;;;;;;;;;5054216;28;20033;-81
2023/01/09 03:11:07;;;;;;;33.92;16.30;;;;;;;;;;5061252;28;20087;-81
2023/01/09 03:13:46;;;;;;;31.15;15.65;;;;;;;;;;5073865;28;20048;-81
2023/01/09 03:16:15;;;;;;;30.95;17.45;;;;;;;;;;5073220;28;20028;-81
2023/01/09 03:18:42;;;;;;;32.70;16.38;;;;;;;;;;5072951;28;20071;-80
2023/01/09 03:21:08;;;;;;;31.98;16.05;;;;;;;;;;5061192;28;20044;-81
2023/01/09 03:23:50;;;;;;;34.67;16.65;;;;;;;;;;5046881;28;20568;-81
2023/01/09 03:26:16;;;;;;;36.72;16.67;;;;;;;;;;5072580;28;20099;-81
2023/01/09 03:28:43;;;;;;;35.25;16.35;;;;;;;;;;5072492;28;20037;-81
2023/01/09 03:31:09;;;;;;;31.13;16.98;;;;;;;;;;5062299;28;20147;-79
2023/01/09 03:33:35;;;;;;;32.50;16.40;;;;;;;;;;5051941;28;20567;-81
2023/01/09 03:36:01;;;;;;;30.27;16.20;;;;;;;;;;5061474;28;20029;-81
2023/01/09 03:38:27;;;;;;;32.10;16.42;;;;;;;;;;5055469;28;20036;-81
2023/01/09 03:40:53;;;;;;;28.95;15.23;;;;;;;;;;5103869;28;20119;-79
2023/01/09 03:43:19;;;;;;;32.63;17.05;;;;;;;;;;5096603;28;20066;-81
2023/01/09 03:45:45;;;;;;;34.20;16.60;;;;;;;;;;5095037;28;20024;-81
2023/01/09 03:48:11;;;;;;;30.13;16.33;;;;;;;;;;5094731;28;20045;-82
2023/01/09 03:50:37;;;;;;;28.73;14.60;;;;;;;;;;5094728;28;20032;-81
2023/01/09 03:53:03;;;;;;;29.90;17.63;;;;;;;;;;5116761;28;20388;-81
2023/01/09 03:55:29;;;;;;;32.40;17.38;;;;;;;;;;5112792;28;20020;-82
2023/01/09 03:57:55;;;;;;;26.73;15.23;;;;;;;;;;5107134;28;20161;-81
2023/01/09 04:00:21;;;;;;;26.65;14.70;;;;;;;;;;5101265;28;20028;-82
2023/01/09 04:02:47;;;;;;;27.00;14.95;;;;;;;;;;5095033;28;20039;-81
2023/01/09 04:05:14;;;;;;;24.23;15.23;;;;;;;;;;5101224;28;20035;-81
2023/01/09 04:07:40;;;;;;;27.38;14.77;;;;;;;;;;5093445;28;20033;-81
2023/01/09 04:10:06;;;;;;;25.05;14.23;;;;;;;;;;5094932;28;20020;-81
2023/01/09 04:12:32;;;;;;;25.50;13.77;;;;;;;;;;5098721;28;20107;-80
2023/01/09 04:14:58;;;;;;;27.63;15.40;;;;;;;;;;5099026;28;20020;-81
2023/01/09 04:17:24;;;;;;;25.40;15.55;;;;;;;;;;5098598;28;20055;-81
2023/01/09 04:19:50;;;;;;;26.90;15.23;;;;;;;;;;5097779;28;20058;-80
2023/01/09 04:22:16;;;;;;;26.17;14.48;;;;;;;;;;5103211;28;20093;-80
2023/01/09 04:24:42;;;;;;;26.83;15.60;;;;;;;;;;5104369;28;20471;-80
2023/01/09 04:27:10;;;;;;;26.88;15.35;;;;;;;;;;5097630;28;20027;-81
2023/01/09 04:29:37;;;;;;;24.65;15.35;;;;;;;;;;5109435;28;20022;-83
2023/01/09 04:32:03;;;;;;;24.98;14.48;;;;;;;;;;5099948;28;20043;-81
2023/01/09 04:34:29;;;;;;;25.90;13.73;;;;;;;;;;5098010;28;20038;-81
2023/01/09 04:36:55;;;;;;;24.23;14.20;;;;;;;;;;5100889;28;20016;-80
2023/01/09 04:39:21;;;;;;;26.90;14.70;;;;;;;;;;5109241;28;20111;-81
2023/01/09 04:41:50;;;;;;;26.42;15.35;;;;;;;;;;5098047;28;20447;-81
2023/01/09 04:44:17;;;;;;;26.15;15.48;;;;;;;;;;5098859;28;20054;-79
2023/01/09 04:46:43;;;;;;;25.63;14.63;;;;;;;;;;5112570;28;20028;-81
2023/01/09 04:49:09;;;;;;;22.73;13.27;;;;;;;;;;5114618;28;20485;-81
2023/01/09 04:51:35;;;;;;;27.23;14.23;;;;;;;;;;5112612;28;20062;-81
2023/01/09 04:54:01;;;;;;;30.88;16.13;;;;;;;;;;5105881;28;20478;-81
2023/01/09 04:56:27;;;;;;;25.77;14.02;;;;;;;;;;5115587;27;20359;-81
2023/01/09 04:58:53;;;;;;;26.02;13.48;;;;;;;;;;5109441;28;20389;-81
2023/01/09 05:01:19;;;;;;;26.25;14.82;;;;;;;;;;5118150;28;20059;-80
2023/01/09 05:03:45;;;;;;;24.55;15.07;;;;;;;;;;5113084;28;20031;-80
2023/01/09 05:06:12;;;;;;;25.80;14.18;;;;;;;;;;5107231;28;20474;-81
2023/01/09 05:08:38;;;;;;;26.30;14.57;;;;;;;;;;5105970;27;20036;-82
2023/01/09 05:11:04;;;;;;;26.88;15.75;;;;;;;;;;5099335;28;20240;-80
2023/01/09 05:13:30;;;;;;;25.73;16.10;;;;;;;;;;5118550;28;20031;-81
2023/01/09 05:15:56;;;;;;;22.05;13.95;;;;;;;;;;5107557;28;20049;-82
2023/01/09 05:18:22;;;;;;;25.10;14.95;;;;;;;;;;5109870;27;20505;-81
2023/01/09 05:20:48;;;;;;;30.88;15.38;;;;;;;;;;5113136;28;20039;-81
2023/01/09 05:23:14;;;;;;;25.60;14.40;;;;;;;;;;5097256;28;20094;-81
2023/01/09 05:25:40;;;;;;;24.52;14.20;;;;;;;;;;5097255;28;20024;-81
2023/01/09 05:28:06;;;;;;;24.90;15.07;;;;;;;;;;5106305;27;21349;-81
2023/01/09 05:30:32;;;;;;;30.45;18.90;;;;;;;;;;5112860;27;20027;-80
2023/01/09 05:32:58;;;;;;;27.85;16.65;;;;;;;;;;5116244;28;20019;-82
2023/01/09 05:35:24;;;;;;;25.75;16.65;;;;;;;;;;5116780;28;20422;-81
2023/01/09 05:37:50;;;;;;;28.00;16.63;;;;;;;;;;5107812;28;20027;-82
2023/01/09 05:40:16;;;;;;;27.92;16.50;;;;;;;;;;5118642;28;20047;-81
2023/01/09 05:42:43;;;;;;;28.15;17.45;;;;;;;;;;5117239;28;20052;-80
2023/01/09 05:45:09;;;;;;;27.35;17.00;;;;;;;;;;5099215;28;20052;-80
2023/01/09 05:47:35;;;;;;;27.15;16.00;;;;;;;;;;5112272;28;20028;-82
2023/01/09 05:50:01;;;;;;;24.30;14.40;;;;;;;;;;5109142;28;20024;-81
2023/01/09 05:52:27;;;;;;;27.88;15.55;;;;;;;;;;5104010;28;20019;-81
2023/01/09 05:54:53;;;;;;;25.05;14.80;;;;;;;;;;5114899;28;20016;-81
2023/01/09 05:57:19;;;;;;;29.65;15.98;;;;;;;;;;5109457;28;20035;-81
2023/01/09 05:59:45;;;;;;;27.58;17.45;;;;;;;;;;5114796;28;20418;-82
2023/01/09 06:02:11;;;;;;;25.70;15.05;;;;;;;;;;5105915;28;20024;-81
2023/01/09 06:04:38;;;;;;;22.77;14.98;;;;;;;;;;5098707;28;20029;-81
2023/01/09 06:07:04;;;;;;;25.63;14.52;;;;;;;;;;5108187;28;20034;-82
2023/01/09 06:09:30;;;;;;;23.10;13.27;;;;;;;;;;5103673;28;20078;-81
2023/01/09 06:11:56;;;;;;;19.40;12.70;;;;;;;;;;5112236;28;20020;-81
2023/01/09 06:14:22;;;;;;;23.00;12.55;;;;;;;;;;5115403;28;20019;-81
2023/01/09 06:16:48;;;;;;;24.48;13.70;;;;;;;;;;5108733;28;20059;-81
2023/01/09 06:19:15;;;;;;;24.10;14.23;;;;;;;;;;5117452;28;20023;-82
2023/01/09 06:21:40;;;;;;;22.85;12.90;;;;;;;;;;5112806;28;20035;-82
2023/01/09 06:24:07;;;;;;;24.98;14.15;;;;;;;;;;5096116;28;20024;-81
2023/01/09 06:26:33;;;;;;;27.15;14.23;;;;;;;;;;5105516;28;20490;-82
2023/01/09 06:29:00;;;;;;;25.60;14.32;;;;;;;;;;5111427;28;20109;-81
2023/01/09 06:31:26;;;;;;;26.48;16.20;;;;;;;;;;5107048;28;20020;-81
2023/01/09 06:33:53;;;;;;;24.63;13.60;;;;;;;;;;5096718;28;20485;-82
2023/01/09 06:36:19;;;;;;;23.10;14.68;;;;;;;;;;5116106;27;20063;-82
2023/01/09 06:38:45;;;;;;;24.63;14.48;;;;;;;;;;5097086;28;20028;-82
2023/01/09 06:41:11;;;;;;;24.42;14.20;;;;;;;;;;5101319;28;20031;-81
2023/01/09 06:43:37;;;;;;;21.67;13.57;;;;;;;;;;5098292;28;20036;-81
2023/01/09 06:46:06;;;;;;;21.50;12.88;;;;;;;;;;5108309;28;20024;-82
2023/01/09 06:48:33;;;;;;;22.27;12.00;;;;;;;;;;5112785;27;20028;-81
2023/01/09 06:50:59;;;;;;;24.73;12.77;;;;;;;;;;5106334;28;20036;-81
2023/01/09 06:53:26;;;;;;;21.90;13.07;;;;;;;;;;5102122;28;20020;-81
2023/01/09 06:55:52;;;;;;;24.38;13.55;;;;;;;;;;5096650;28;20035;-81
2023/01/09 06:58:19;;;;;;;22.02;13.05;;;;;;;;;;5097207;28;20035;-82
2023/01/09 07:00:45;;;;;;;21.15;12.50;;;;;;;;;;5097560;28;20425;-82
2023/01/09 07:03:18;;;;;;;23.58;13.93;;;;;;;;;;5097667;28;20054;-81
2023/01/09 07:05:44;;;;;;;23.63;14.40;;;;;;;;;;5097617;28;20062;-82
2023/01/09 07:08:10;;;;;;;21.08;14.07;;;;;;;;;;5096868;28;20024;-81
2023/01/09 07:10:36;;;;;;;24.42;13.88;;;;;;;;;;5110828;28;20096;-82
2023/01/09 07:13:02;;;;;;;23.65;13.15;;;;;;;;;;5117220;28;20064;-82
2023/01/09 07:15:28;;;;;;;20.75;12.18;;;;;;;;;;5114390;28;20084;-81
2023/01/09 07:17:54;;;;;;;22.45;11.65;;;;;;;;;;5112754;28;20066;-82
2023/01/09 07:20:20;;;;;;;20.27;11.93;;;;;;;;;;5117367;28;20478;-82
2023/01/09 07:22:46;;;;;;;19.63;11.93;;;;;;;;;;5117734;28;20019;-81
2023/01/09 07:25:12;;;;;;;22.58;13.10;;;;;;;;;;5109482;28;20034;-81
2023/01/09 07:27:38;;;;;;;20.00;11.90;;;;;;;;;;5116979;28;20031;-81
2023/01/09 07:30:05;;;;;;;19.27;12.93;;;;;;;;;;5117209;28;20388;-82
2023/01/09 07:32:32;;;;;;;20.67;13.52;;;;;;;;;;5116592;28;20488;-81
2023/01/09 07:34:58;;;;;;;22.77;14.05;;;;;;;;;;5115266;28;20028;-81
2023/01/09 07:37:24;;;;;;;20.45;12.70;;;;;;;;;;5114993;28;20020;-81
2023/01/09 07:39:50;;;;;;;20.80;13.05;;;;;;;;;;5118212;28;20028;-80
2023/01/09 07:42:16;;;;;;;19.83;12.02;;;;;;;;;;5118614;28;20397;-81
2023/01/09 07:44:42;;;;;;;24.33;13.75;;;;;;;;;;5114085;28;20050;-82
2023/01/09 07:47:08;;;;;;;25.55;15.27;;;;;;;;;;5119858;28;20039;-81
2023/01/09 07:49:34;;;;;;;25.58;14.48;;;;;;;;;;5119039;28;20400;-81
2023/01/09 07:52:00;;;;;;;23.38;13.88;;;;;;;;;;5120244;28;20051;-82
2023/01/09 07:54:26;;;;;;;25.45;14.10;;;;;;;;;;5118884;28;20012;-82
2023/01/09 07:56:52;;;;;;;22.55;14.15;;;;;;;;;;5119557;28;20098;-81
2023/01/09 07:59:18;;;;;;;24.50;14.80;;;;;;;;;;5121792;28;20430;-81
2023/01/09 08:01:44;;;;;;;24.45;15.18;;;;;;;;;;5121598;28;20034;-82
2023/01/09 08:04:10;;;;;;;25.83;14.80;;;;;;;;;;5120103;28;20031;-81
2023/01/09 08:06:36;;;;;;;22.65;14.05;;;;;;;;;;5118757;28;20031;-82
2023/01/09 08:09:02;;;;;;;23.77;15.35;;;;;;;;;;5120101;28;20037;-82
2023/01/09 08:11:29;;;;;;;26.77;15.95;;;;;;;;;;5121164;28;20031;-82
2023/01/09 08:13:55;;;;;;;26.25;15.88;;;;;;;;;;5118372;28;20485;-81
2023/01/09 08:16:21;;;;;;;26.25;15.15;;;;;;;;;;5110580;28;20022;-82
2023/01/09 08:18:47;;;;;;;23.38;15.13;;;;;;;;;;5119000;28;20020;-83
2023/01/09 08:21:13;;;;;;;23.73;14.10;;;;;;;;;;5113674;28;20031;-81
2023/01/09 08:23:39;;;;;;;26.35;14.88;;;;;;;;;;5099965;28;20394;-82
2023/01/09 08:26:05;;;;;;;27.05;14.35;;;;;;;;;;5118309;28;20478;-82
2023/01/09 08:28:32;;;;;;;25.13;13.80;;;;;;;;;;5119092;28;20035;-82
2023/01/09 08:30:57;;;;;;;24.30;15.55;;;;;;;;;;5118685;28;20041;-82
2023/01/09 08:33:23;;;;;;;23.92;14.05;;;;;;;;;;5120063;28;20027;-81
2023/01/09 08:35:49;;;;;;;26.02;13.75;;;;;;;;;;5102661;28;20409;-82
2023/01/09 08:38:16;;;;;;;24.33;14.43;;;;;;;;;;5116118;28;20023;-81
2023/01/09 08:40:42;;;;;;;23.55;14.43;;;;;;;;;;5119659;28;20485;-82
2023/01/09 08:48:38;;;;;;;25.27;14.45;;;;;;;;;;5099362;28;20124;-82
2023/01/09 08:51:04;;;;;;;24.98;14.30;;;;;;;;;;5100373;28;20056;-82
2023/01/09 08:53:30;;;;;;;27.92;13.70;;;;;;;;;;5097823;28;20750;-82
2023/01/09 08:55:56;;;;;;;25.35;14.45;;;;;;;;;;5113969;28;20039;-82
2023/01/09 08:58:22;;;;;;;24.42;14.35;;;;;;;;;;5106275;28;20028;-82
2023/01/09 09:00:48;;;;;;;25.15;14.40;;;;;;;;;;5118689;28;20027;-82
2023/01/09 09:03:14;;;;;;;24.67;13.38;;;;;;;;;;5118580;28;20393;-82
2023/01/09 09:05:40;;;;;;;20.73;10.98;;;;;;;;;;5108908;28;20032;-82
2023/01/09 09:08:06;;;;;;;24.30;12.60;;;;;;;;;;5098271;28;20465;-81
2023/01/09 09:10:32;;;;;;;25.92;14.15;;;;;;;;;;5097808;28;20077;-82
2023/01/09 09:12:59;;;;;;;22.17;13.10;;;;;;;;;;5098266;28;20035;-81
2023/01/09 09:15:25;;;;;;;22.30;11.73;;;;;;;;;;5100654;28;20028;-81
2023/01/09 09:17:56;;;;;;;21.52;11.52;;;;;;;;;;5096799;28;20178;-81
2023/01/09 09:20:23;;;;;;;21.00;12.93;;;;;;;;;;5098175;28;20035;-82
2023/01/09 09:22:49;;;;;;;17.00;11.05;;;;;;;;;;5098505;28;20113;-82
2023/01/09 09:25:17;;;;;;;19.75;11.35;;;;;;;;;;5109374;28;20055;-81
2023/01/09 09:27:43;;;;;;;17.08;11.23;;;;;;;;;;5118676;28;20069;-82
2023/01/09 09:30:10;;;;;;;15.75;10.45;;;;;;;;;;5117744;28;20020;-83
2023/01/09 09:32:36;;;;;;;18.23;10.43;;;;;;;;;;5117297;28;20030;-83
2023/01/09 09:35:02;;;;;;;19.25;11.68;;;;;;;;;;5118992;28;20028;-81
2023/01/09 09:37:28;;;;;;;17.98;11.32;;;;;;;;;;5125230;28;20060;-82
2023/01/09 09:39:54;;;;;;;18.83;11.27;;;;;;;;;;5118680;28;20024;-82
2023/01/09 09:45:42;;;;;;;54.25;30.45;;;;;;;;;;5115874;28;20066;-82
2023/01/09 09:48:30;;;;;;;31.25;17.55;;;;;;;;;;5110647;28;20016;-82
2023/01/09 09:51:16;;;;;;;25.95;14.57;;;;;;;;;;5096333;28;20278;-80
2023/01/09 09:53:42;;;;;;;26.05;14.07;;;;;;;;;;5097335;28;20024;-81
2023/01/09 09:56:12;;;;;;;23.73;13.60;;;;;;;;;;5104158;28;20168;-81
2023/01/09 09:58:44;;;;;;;26.80;13.52;;;;;;;;;;5116121;28;20438;-81
2023/01/09 10:01:12;;;;;;;23.48;13.90;;;;;;;;;;5116446;28;20031;-81
2023/01/09 10:03:58;;;;;;;19.25;11.23;;;;;;;;;;5101001;28;20032;-80
2023/01/09 10:06:27;;;;;;;16.75;9.10;;;;;;;;;;5113308;28;20047;-79
2023/01/09 10:09:08;;;;;;;12.50;7.03;;;;;;;;;;5114597;28;20084;-80
2023/01/09 10:11:55;;;;;;;11.73;6.85;;;;;;;;;;5113250;28;20024;-79
2023/01/09 10:14:22;;;;;;;9.90;4.85;;;;;;;;;;5115787;28;20023;-80
2023/01/09 10:17:02;;;;;;;8.88;4.63;;;;;;;;;;5112344;28;20505;-80
2023/01/09 10:19:28;;;;;;;9.75;4.32;;;;;;;;;;5094484;28;20016;-79
2023/01/09 10:22:06;;;;;;;7.68;4.20;;;;;;;;;;5102872;28;20351;-81
2023/01/09 10:24:52;;;;;;;7.45;3.83;;;;;;;;;;5096536;28;20035;-81
2023/01/09 10:27:35;;;;;;;7.88;3.83;;;;;;;;;;5093138;28;20478;-79
2023/01/09 10:30:04;;;;;;;5.80;2.65;;;;;;;;;;5096770;28;20091;-79
2023/01/09 10:32:38;;;;;;;5.47;3.10;;;;;;;;;;5112098;28;20106;-79
2023/01/09 10:35:14;;;;;;;6.55;3.35;;;;;;;;;;5114207;28;20043;-79
2023/01/09 10:37:44;;;;;;;5.00;2.55;;;;;;;;;;5114093;28;20024;-79
2023/01/09 10:40:13;;;;;;;4.95;2.35;;;;;;;;;;5114478;28;20059;-81
2023/01/09 10:42:43;;;;;;;5.05;2.33;;;;;;;;;;5096979;28;20118;-79
2023/01/09 10:45:28;;;;;;;5.15;1.98;;;;;;;;;;5092559;28;20052;-80
2023/01/09 10:47:59;;;;;;;6.82;2.97;;;;;;;;;;5105487;28;20027;-78
2023/01/09 10:50:32;;;;;;;4.95;2.15;;;;;;;;;;5113387;28;20164;-81
2023/01/09 10:52:58;;;;;;;;;;;;;;;;;;5111483;28;20028;-80
2023/01/09 10:55:42;;;;;;;5.50;2.28;;;;;;;;;;5114775;28;19990;-80
2023/01/09 10:58:18;;;;;;;5.43;2.10;;;;;;;;;;5113830;28;20446;-79
2023/01/09 11:00:45;;;;;;;4.22;1.70;;;;;;;;;;5114367;28;20085;-79
2023/01/09 11:03:12;;;;;;;3.60;1.83;;;;;;;;;;5093548;28;20582;-80
2023/01/09 11:05:38;;;;;;;6.00;1.98;;;;;;;;;;5093702;28;20550;-79
2023/01/09 11:08:21;;;;;;;5.13;2.22;;;;;;;;;;5093859;28;20024;-80
2023/01/09 11:10:51;;;;;;;3.40;1.50;;;;;;;;;;5097020;28;20043;-80
2023/01/09 11:13:22;;;;;;;3.80;1.60;;;;;;;;;;5114227;28;20019;-80
2023/01/09 11:16:04;;;;;;;4.18;1.73;;;;;;;;;;5114239;28;20023;-81
2023/01/09 11:18:30;;;;;;;4.95;2.38;;;;;;;;;;5112631;28;20070;-82
2023/01/09 11:21:11;;;;;;;3.42;1.58;;;;;;;;;;5114359;28;20024;-81
2023/01/09 11:23:37;;;;;;;3.00;1.30;;;;;;;;;;5118391;28;20039;-80
2023/01/09 11:26:03;;;;;;;4.35;1.90;;;;;;;;;;5118498;28;20076;-81
2023/01/09 11:28:29;;;;;;;3.92;1.55;;;;;;;;;;5119310;28;20055;-80
2023/01/09 11:31:00;;;;;;;4.15;1.63;;;;;;;;;;5113510;28;20048;-81
2023/01/09 11:33:31;;;;;;;4.28;1.50;;;;;;;;;;5122215;28;20079;-81
2023/01/09 11:35:59;;;;;;;3.67;1.50;;;;;;;;;;5119581;28;20106;-80
2023/01/09 11:38:25;;;;;;;4.22;1.70;;;;;;;;;;5119072;27;20027;-81
2023/01/09 11:40:56;;;;;;;3.88;1.67;;;;;;;;;;5112463;28;20028;-81
2023/01/09 11:43:29;;;;;;;3.65;1.50;;;;;;;;;;5101075;28;20532;-81
2023/01/09 11:45:55;;;;;;;4.63;1.65;;;;;;;;;;5098878;28;20028;-80
2023/01/09 11:48:44;;;;;;;3.20;1.10;;;;;;;;;;5113139;28;20062;-82
2023/01/09 11:51:18;;;;;;;2.67;0.90;;;;;;;;;;5103829;27;20040;-80
2023/01/09 11:53:48;;;;;;;3.08;1.00;;;;;;;;;;5099096;28;20549;-83
2023/01/09 11:56:16;;;;;;;2.38;0.98;;;;;;;;;;5098096;28;20107;-80
2023/01/09 11:58:42;;;;;;;2.67;1.00;;;;;;;;;;5098309;28;20020;-81
2023/01/09 12:01:17;;;;;;;3.42;1.00;;;;;;;;;;5104923;28;20058;-81
2023/01/09 12:03:53;;;;;;;2.17;0.88;;;;;;;;;;5119502;28;20028;-82
2023/01/09 12:06:27;;;;;;;3.35;1.15;;;;;;;;;;5119239;28;20027;-81
2023/01/09 12:08:56;;;;;;;2.53;1.00;;;;;;;;;;5118622;28;20034;-81
2023/01/09 12:11:28;;;;;;;2.58;1.00;;;;;;;;;;5116445;28;20019;-82
2023/01/09 12:14:03;;;;;;;2.83;1.20;;;;;;;;;;5105714;28;20024;-82
2023/01/09 12:16:35;;;;;;;3.25;1.00;;;;;;;;;;5108524;28;20262;-85
2023/01/09 12:19:04;;;;;;;4.03;1.35;;;;;;;;;;5116824;28;20087;-83
2023/01/09 12:21:32;;;;;;;3.47;1.20;;;;;;;;;;5112172;28;20032;-82
2023/01/09 12:24:02;;;;;;;2.75;1.00;;;;;;;;;;5118165;28;20027;-80
2023/01/09 12:26:31;;;;;;;3.25;1.10;;;;;;;;;;5118759;28;20024;-83
2023/01/09 12:29:21;;;;;;;2.53;1.02;;;;;;;;;;5118096;28;20024;-83
2023/01/09 12:31:47;;;;;;;3.65;1.67;;;;;;;;;;5115801;28;20450;-82
2023/01/09 12:34:19;;;;;;;3.20;1.40;;;;;;;;;;5108705;28;20020;-82
2023/01/09 12:36:58;;;;;;;6.88;2.47;;;;;;;;;;5111041;28;20071;-83
2023/01/09 12:39:32;;;;;;;2.85;1.10;;;;;;;;;;5119492;28;20485;-82
2023/01/09 12:42:22;;;;;;;4.15;1.63;;;;;;;;;;5109932;28;20032;-83
2023/01/09 12:44:59;;;;;;;3.67;1.55;;;;;;;;;;5098936;28;20093;-81
2023/01/09 12:47:38;;;;;;;3.53;1.73;;;;;;;;;;5116590;28;20397;-83
2023/01/09 12:50:10;;;;;;;3.75;1.60;;;;;;;;;;5117326;28;20019;-82
2023/01/09 12:52:41;;;;;;;3.57;1.27;;;;;;;;;;5118304;28;20237;-81
2023/01/09 12:55:30;;;;;;;3.22;1.10;;;;;;;;;;5115836;28;20322;-82
2023/01/09 12:57:59;;;;;;;3.92;1.30;;;;;;;;;;5102006;28;20047;-83
2023/01/09 13:00:30;;;;;;;3.35;1.50;;;;;;;;;;5098769;28;20038;-84
2023/01/09 13:03:01;;;;;;;5.63;1.63;;;;;;;;;;5116109;28;20037;-84
2023/01/09 13:05:32;;;;;;;4.03;1.90;;;;;;;;;;5104637;28;20047;-84
2023/01/09 13:08:04;;;;;;;5.30;2.70;;;;;;;;;;5095705;28;20031;-84
2023/01/09 13:10:32;;;;;;;3.40;1.67;;;;;;;;;;5098688;28;20020;-82
2023/01/09 13:12:59;;;;;;;5.20;1.98;;;;;;;;;;5116868;28;20076;-84
2023/01/09 13:15:30;;;;;;;3.85;1.40;;;;;;;;;;5118364;28;20023;-83
2023/01/09 13:18:03;;;;;;;13.10;1.90;;;;;;;;;;5120878;28;20016;-82
2023/01/09 13:20:29;;;;;;;3.35;1.40;;;;;;;;;;5114050;28;20024;-80
2023/01/09 13:22:56;;;;;;;3.33;1.33;;;;;;;;;;5112164;28;20142;-81
2023/01/09 13:25:43;;;;;;;4.35;1.80;;;;;;;;;;5116646;28;20023;-82
2023/01/09 13:28:21;;;;;;;3.70;1.70;;;;;;;;;;5099042;28;20024;-82
2023/01/09 13:30:59;;;;;;;3.30;1.55;;;;;;;;;;5117922;28;20096;-82
2023/01/09 13:33:30;;;;;;;4.13;1.70;;;;;;;;;;5097208;28;20039;-81
2023/01/09 13:35:57;;;;;;;5.00;2.00;;;;;;;;;;5097590;28;20028;-82
2023/01/09 13:38:25;;;;;;;5.35;2.00;;;;;;;;;;5096158;28;20114;-82
2023/01/09 13:43:54;;;;;;;;;;;;;;;;;;5099663;28;20133;-80
2023/01/09 13:46:20;;;;;;;4.65;2.38;;;;;;;;;;5105821;27;19911;-82
2023/01/09 13:48:46;;;;;;;4.85;2.25;;;;;;;;;;5128946;27;20028;-81
2023/01/09 13:51:31;;;;;;;4.30;1.90;;;;;;;;;;5118354;28;20107;-81
2023/01/09 13:53:57;;;;;;;4.72;2.10;;;;;;;;;;5110720;28;20016;-83
2023/01/09 13:56:23;;;;;;;4.13;2.20;;;;;;;;;;5114770;28;20043;-82
2023/01/09 13:58:57;;;;;;;5.22;2.90;;;;;;;;;;5116691;28;20019;-80
2023/01/09 14:01:26;;;;;;;4.90;2.17;;;;;;;;;;5115842;28;20073;-82
2023/01/09 14:04:11;;;;;;;4.20;1.92;;;;;;;;;;5098421;28;20130;-81
2023/01/09 14:06:37;;;;;;;4.75;1.98;;;;;;;;;;5098210;28;20031;-84
2023/01/09 14:09:12;;;;;;;5.10;2.72;;;;;;;;;;5102825;28;20036;-81
2023/01/09 14:11:38;;;;;;;4.75;2.40;;;;;;;;;;5113977;28;20042;-82
2023/01/09 14:14:06;;;;;;;4.93;2.30;;;;;;;;;;5102579;28;20052;-82
2023/01/09 14:16:33;;;;;;;5.55;2.13;;;;;;;;;;5110711;28;20354;-82
2023/01/09 14:19:06;;;;;;;5.15;3.17;;;;;;;;;;5102777;28;20034;-81
2023/01/09 14:21:32;;;;;;;;;;;;;;;;;;5104122;27;20031;-81
2023/01/09 14:24:01;;;;;;;6.00;3.03;;;;;;;;;;5104291;28;19916;-81
2023/01/09 14:26:47;;;;;;;4.85;2.50;;;;;;;;;;5100278;28;20023;-82
2023/01/09 14:29:33;;;;;;;5.13;2.70;;;;;;;;;;5098547;28;20077;-80
2023/01/09 14:32:18;;;;;;;5.70;2.70;;;;;;;;;;5101410;28;20046;-80
2023/01/09 14:34:45;;;;;;;6.10;3.22;;;;;;;;;;5115784;28;20027;-84
2023/01/09 14:37:13;;;;;;;5.35;3.00;;;;;;;;;;5120632;28;20031;-82
2023/01/09 14:39:41;;;;;;;5.55;2.90;;;;;;;;;;5111558;28;20174;-83
2023/01/09 14:42:14;;;;;;;6.47;2.90;;;;;;;;;;5102178;28;20028;-82
2023/01/09 14:44:40;;;;;;;6.07;2.53;;;;;;;;;;5099683;28;20130;-84
2023/01/09 14:47:14;;;;;;;6.45;2.92;;;;;;;;;;5104899;28;20024;-83
2023/01/09 14:50:06;;;;;;;5.75;3.17;;;;;;;;;;5118370;28;20024;-82
2023/01/09 14:52:38;;;;;;;5.25;2.67;;;;;;;;;;5100699;28;20040;-80
2023/01/09 14:55:07;;;;;;;5.97;2.95;;;;;;;;;;5107048;28;20490;-81